x

8454000 - Providence, Ri (foxr1) Weather Station

1:54 - Tue 5th May 2015 All times are EDT. -4 hours from GMT.

  • Wind
    5mph, 6mph gusts
  • Sea Temp 55°f
  • Ar Temp 71°f
  • Sea Pressure 1021.3mb
  • 8454000 - Providence, Ri
  • 8454000 - Providence, Ri

More Historic Weather Station data

Upgrade to MSW Pro to gain access to the past 30 days of data for over 8000 Wavebouys and Weather Stations around the globe.

Join Pro

Comparision Forecast

View Surf forecast
   
Ter 05/05 1:54 5 6 mph 1021.3mb 55f 71f
1:48 3
mph
1021.4mb 55f 71f
1:42 2 3 mph 1021.4mb - -
1:36 2
mph
1021.5mb 55f 71f
1:30 3 5 mph 1021.7mb 55f 70f
1:24 5 6 mph 1021.7mb 55f 70f
1:18 3 5 mph 1021.8mb 55f 70f
1:12 3 5 mph 1021.9mb 55f 70f
1:06 2 3 mph 1021.9mb 55f 69f
1:00 3
mph
1022mb 55f 70f
12:54 2 3 mph 1021.9mb 55f 70f
12:48 3 6 mph 1021.9mb 55f 70f
12:42 6 7 mph 1022mb 54f 70f
12:36 5 7 mph 1022mb 54f 70f
12:30 3 5 mph 1022.1mb - -
12:24 5 6 mph 1022mb 54f 70f
12:18 5 6 mph 1022mb 54f 70f
12:12 5 7 mph 1022mb 54f 70f
12:06 5 6 mph 1022.1mb 54f 70f
12:00 5 9 mph - - -
11:54 7 9 mph 1022.1mb 54f 69f
11:48 6 7 mph 1022.1mb 54f 69f
11:42 2 7 mph 1022.2mb 54f 69f
11:36 6 8 mph 1022.3mb 53f 69f
11:30 7 9 mph - - -
11:24 6 9 mph 1022.3mb 53f 69f
11:18 8 10 mph 1022.2mb 53f 69f
11:12 10 14 mph 1022.2mb 53f 69f
11:06 10 13 mph 1022.2mb 53f 69f
11:00 8 11 mph 1022.2mb 53f 69f
10:54 9 13 mph 1022.1mb 53f 69f
10:48 9 11 mph 1022.1mb 53f 70f
10:42 8 11 mph 1022mb 53f 70f
10:36 9 11 mph 1021.9mb 53f 70f
10:30 6 10 mph - - -
10:12 6 7 mph 1021.8mb 53f 67f
10:06 3 6 mph 1021.8mb 53f 64f
10:00 1 7 mph 1021.6mb 53f 64f
9:54 5 8 mph 1021.5mb 53f 62f
9:48 6 8 mph 1021.5mb 52f 61f
9:42 2 5 mph 1021.5mb 52f 61f
9:36  -  3 mph 1021.5mb 52f 62f
9:30 2 3 mph 1021.5mb 52f 61f
9:24 2
mph
1021.5mb 52f 61f
9:18 2 5 mph 1021.6mb 52f 61f
9:12 5 6 mph 1021.5mb 52f 61f
9:06 5 6 mph 1021.4mb 52f 60f
9:00 2 3 mph 1021.4mb 52f 60f
8:54 3 5 mph 1021.4mb 52f 60f
8:48 5
mph
1021.4mb 52f -
8:42 3 5 mph 1021.4mb 52f 60f
8:36 3 5 mph 1021.4mb 52f 60f
8:30 5
mph
1021.4mb 52f 60f
8:24 5 6 mph 1021.3mb 52f 59f
8:18 5
mph
1021.3mb 52f 59f
8:12 2 5 mph 1021.3mb 52f 60f
8:06 5 6 mph 1021.2mb 52f 60f
8:00 6 7 mph 1021.2mb 52f 59f
7:54 6
mph
1021.2mb 52f 60f
7:42 3 5 mph 1021mb 52f 62f
7:36 3 5 mph 1020.8mb 52f 60f
7:30 2 6 mph 1020.8mb 52f 59f
7:24 6 7 mph 1020.7mb 52f 59f
7:18 6 7 mph 1020.6mb 52f 59f
7:06 6 8 mph 1020.4mb 52f 60f
7:00 7 8 mph 1020.3mb 53f 60f
6:54 8 9 mph 1020.3mb 53f 60f
6:48 8
mph
1020.2mb 53f 60f
6:42 6 7 mph - - -
6:36 5 6 mph 1020.3mb 53f 60f
6:30 5 7 mph 1020.3mb 53f 60f
6:24 6 7 mph 1020.1mb 54f 59f
6:18 6 7 mph 1020.1mb 54f 59f
6:12 6 7 mph 1020mb 54f 59f
6:06 3 5 mph 1019.9mb 55f 59f
6:00 5
mph
- - -
5:54 3 5 mph 1019.7mb 55f 58f
5:48 3
mph
1019.7mb 55f 59f
5:42 2 3 mph 1019.6mb 55f 59f
5:36 3 5 mph 1019.6mb 55f 59f
5:30 3 5 mph 1019.5mb 55f 59f
5:24 5 7 mph 1019.5mb 55f 59f
5:18 6 8 mph 1019.5mb 55f 59f
5:12 7 8 mph 1019.5mb 55f 59f
5:06 7 8 mph 1019.4mb 55f 60f
5:00 7 9 mph 1019.4mb 55f 61f
4:54 6 7 mph 1019.3mb 55f 63f
4:48 5 8 mph 1019.3mb 55f 65f
4:42 5 7 mph 1019.3mb 55f 65f
4:36 6 9 mph 1019.3mb 55f 66f
4:30 6 11 mph 1019.3mb 55f 66f
4:24 7 13 mph 1019.2mb 55f 66f
4:18 10 14 mph 1019.2mb 55f 66f
4:06 10 16 mph 1019.2mb 55f 66f
4:00 10 14 mph 1019.2mb 55f 66f
3:54 7 14 mph 1019.3mb 55f 66f
3:48 9 14 mph 1019.3mb 55f 66f
3:36 8 14 mph 1019.4mb 55f 67f
3:30 8 15 mph 1019.4mb 55f 67f
3:24 9 14 mph 1019.5mb 55f 67f
3:18 9 13 mph 1019.5mb 55f 67f
3:12 8 16 mph 1019.5mb 55f 67f
3:06 9 16 mph 1019.4mb 55f 67f
2:54 9 15 mph 1019.2mb 55f 67f
2:48 13 20 mph 1019.1mb 55f 68f
2:30 9 17 mph 1019.1mb 55f 68f
2:18 7 16 mph 1019.1mb 55f 68f
2:06 11 17 mph 1019mb 55f 68f
1:48 7 16 mph 1019.2mb 55f 67f
1:42 6 11 mph 1019.2mb 55f 67f
1:36 6 11 mph 1019.1mb 55f 67f
1:30 7 9 mph 1019.2mb 55f 66f
1:24 6 10 mph 1019.2mb 55f 66f
1:18 6 10 mph 1019.2mb 55f 66f
1:12 6 10 mph 1019.2mb 55f 66f
1:06 6 11 mph 1019.2mb 55f 66f
1:00 7 10 mph 1019.3mb 55f 66f
12:54 7 10 mph 1019.4mb 55f 66f
12:48 8 14 mph 1019.4mb 55f 66f
12:42 8 13 mph - - -
12:36 9 14 mph 1019.5mb 54f 66f
12:30 8 14 mph 1019.5mb 54f 65f
12:24 8 11 mph 1019.4mb 54f 65f
12:18 8 14 mph 1019.5mb 54f 65f
12:12 8 15 mph 1019.4mb 54f 65f
12:06 8 14 mph 1019.5mb 54f 65f
12:00 8 17 mph 1019.5mb 54f 66f
Seg 05/04 11:54 11 17 mph 1019.6mb 54f 66f
11:48 10 17 mph 1019.6mb 54f 66f
11:42 9 16 mph 1019.6mb 54f 66f
11:36 10 14 mph 1019.6mb 54f 65f
11:30 9 14 mph - - -
11:24 9 13 mph 1019.6mb 54f 66f
11:18 8 17 mph 1019.6mb 53f 66f
11:12 9 17 mph 1019.6mb 53f 66f
11:06 13 15 mph 1019.6mb 53f 66f
11:00 11 21 mph 1019.7mb 53f 66f
10:54 11 17 mph 1019.7mb 53f 66f
10:48 11 18 mph 1019.7mb 53f 66f
10:42 11 18 mph 1019.7mb 53f 66f
10:36 10 21 mph 1019.7mb 53f 66f
10:24 13 17 mph 1019.8mb 53f 67f
10:18 14 16 mph 1019.8mb 53f 67f
10:12 9 17 mph 1020mb 53f 67f
10:06 9 18 mph 1020mb 53f 67f
10:00 9 18 mph 1020mb 53f 67f
9:54 10 18 mph 1020.1mb 53f 68f
9:42 10 16 mph 1020.2mb 53f 68f
9:36 14 17 mph 1020.2mb 53f 68f
9:30 10 17 mph 1020.3mb 53f 68f
9:24 9 17 mph 1020.3mb 53f 68f
9:18 7 14 mph 1020.3mb 53f 69f
9:12 10 16 mph 1020.3mb 53f 69f
9:00 9 17 mph 1020.2mb 53f 69f
8:54 10 14 mph 1020.1mb 53f -
8:48 11 15 mph 1020mb 52f 69f
8:42 9 14 mph 1020mb 52f 69f
8:36 9 14 mph 1019.9mb 52f 70f
8:30 11 17 mph 1019.9mb 52f 70f
8:24 10 17 mph 1019.9mb 52f 70f
8:18 14 16 mph 1019.8mb 52f 70f
8:12 13 17 mph 1019.7mb 52f 71f
8:06 13 18 mph 1019.6mb 52f 71f
8:00 16 22 mph 1019.6mb 52f 71f
7:54 15 21 mph 1019.5mb 52f 72f
7:48 14 20 mph 1019.5mb 52f 72f
7:42 11 21 mph 1019.5mb 52f 72f
7:36 11 20 mph 1019.4mb 52f 73f
7:30 13 24 mph 1019.4mb 52f 73f
7:24 15 22 mph 1019.4mb 52f 73f
7:18 18 23 mph - - -
7:12 17 22 mph 1019.4mb 52f 74f
7:06 18 25 mph 1019.4mb 52f 74f
7:00 14 23 mph - - -
6:54 11 25 mph 1019.2mb 52f 75f
6:48 20 29 mph 1019.2mb 52f 75f
6:42 18 26 mph 1019.1mb 52f 76f
6:36 14 23 mph 1019.2mb 52f 76f
6:30 16 25 mph 1019.1mb 52f 76f
6:24 15 29 mph 1019mb 52f 77f
6:18 17 28 mph 1019mb 52f 77f
6:12 15 28 mph 1019mb 52f 77f
6:06 16 23 mph 1019mb 52f 77f
6:00 17 24 mph 1019mb 52f 78f
5:54 17 25 mph 1019mb 52f 78f
5:48 18 25 mph 1019mb 52f 78f
5:42 18 29 mph 1019.1mb 52f 78f
5:36 20 31 mph 1019.1mb 52f 78f
5:24 17 24 mph 1019.1mb 52f 78f
5:18 23 30 mph 1019.2mb 52f 79f
5:12 22 30 mph 1019.2mb - -
5:06 17 26 mph 1019.3mb 53f 79f
5:00 18 30 mph 1019.1mb 53f 80f
4:54 21 29 mph 1019.2mb 53f 80f
4:48 17 30 mph 1019.1mb 53f 80f
4:42 18 28 mph 1019.1mb 53f 80f
4:36 15 29 mph 1019.1mb 53f 80f
4:30 17 37 mph - - -
4:24 24 34 mph 1019.2mb 53f 80f
4:18 21 33 mph 1019.1mb 53f 80f
4:12 23 30 mph 1019.1mb 53f -
4:06 22 31 mph 1019.1mb 53f -
4:00 24 32 mph 1019mb 53f -
3:54 18 30 mph 1019.2mb 53f -
3:48 22 32 mph 1019.1mb 53f -
3:42 22 33 mph 1019.3mb 53f -
3:36 18 24 mph 1019.3mb 54f -
3:30 15 28 mph 1019.2mb 54f -
3:24 16 26 mph 1019.2mb 54f -
3:18 15 22 mph 1019.3mb 54f 71f
3:12 20 22 mph 1019.3mb 54f 69f
3:06 16 23 mph 1019.4mb 54f 68f
3:00 21 26 mph 1019.5mb 54f 67f
2:54 20 25 mph 1019.5mb 54f 67f
2:48 18 23 mph 1019.6mb 54f 67f
2:42 21 25 mph 1019.7mb 54f 66f
2:36 22 26 mph 1019.7mb 54f 65f
2:30 18 24 mph 1019.8mb 54f 66f
2:24 22 25 mph 1019.9mb 54f 65f
2:18 20 23 mph 1020mb 54f 65f
2:12 20 24 mph 1020.1mb 54f 65f
2:06 16 22 mph 1020.2mb 54f 65f
2:00 17 22 mph 1020.3mb 54f 65f
1:54 17 22 mph 1020.3mb 54f 64f
1:48 18 22 mph 1020.4mb 54f 64f
1:42 15 22 mph 1020.4mb 54f 65f
1:36 15 24 mph 1020.5mb 53f 65f
1:30 16 22 mph 1020.6mb - -
1:24 18 22 mph 1020.6mb 53f 65f
1:18 14 17 mph 1020.6mb 53f 66f
1:06 15 20 mph 1020.7mb 53f 65f
1:00 13 17 mph 1020.8mb 53f 65f
12:54 13 18 mph 1020.8mb 53f 64f
12:48 16 20 mph 1021mb 53f 64f
12:36 13 15 mph 1021.2mb 53f 63f
12:30 15 20 mph 1021.2mb 53f 64f
12:24 17 21 mph 1021.3mb 53f 63f
12:18 15 20 mph 1021.4mb 52f 64f
12:12 11 20 mph 1021.5mb 52f 64f
12:06 17 20 mph 1021.5mb 52f 63f
12:00 15 21 mph 1021.6mb 52f 64f
11:54 16 20 mph 1021.7mb 52f 63f
11:48 14 17 mph 1021.8mb 52f 62f
11:42 8 14 mph 1021.9mb - -
11:36 13 17 mph 1022mb 52f 62f
11:30 14 16 mph 1022mb 52f 61f
11:12 13 14 mph 1022.3mb 52f 60f
11:06 9 14 mph 1022.3mb 52f 60f
11:00 10 13 mph 1022.4mb 52f 60f
10:54 11 13 mph 1022.4mb 51f 60f
10:48 10 14 mph 1022.4mb 51f 60f
10:36 8 10 mph 1022.5mb 51f 59f
10:30 9 13 mph 1022.5mb 51f 58f
10:18 9 13 mph 1022.5mb 51f 57f
10:12 11 14 mph 1022.6mb 51f 57f
10:06 11 13 mph 1022.6mb 51f 57f
10:00 9 11 mph 1022.5mb 51f 56f
9:54 10 13 mph 1022.5mb 51f 56f
9:48 11 13 mph 1022.4mb 51f 56f
9:42 13 14 mph 1022.4mb 51f 55f
9:36 13 14 mph 1022.4mb 51f 55f
9:30 11 13 mph 1022.4mb - -
9:24 11 13 mph 1022.4mb 51f 54f
9:18 13 14 mph 1022.4mb 51f 54f
9:12 10 11 mph 1022.4mb 51f 53f
9:00 9 13 mph 1022.4mb 51f 53f
8:54 9 13 mph 1022.4mb 51f 52f
8:48 9 11 mph 1022.4mb 51f 53f
8:42 9 13 mph 1022.4mb 51f 52f
8:36 10 14 mph 1022.4mb 51f 52f
8:24 10 14 mph 1022.5mb 50f 51f
8:18 10 14 mph 1022.5mb 50f 51f
8:12 11 14 mph 1022.4mb 50f 51f
8:06 9 14 mph 1022.4mb 50f 51f
8:00 10 14 mph 1022.4mb 50f 51f
7:54 9 11 mph 1022.4mb 50f 51f
7:42 9 10 mph 1022.4mb 50f 51f
7:36 9 10 mph 1022.4mb 50f 51f
7:30 6 7 mph 1022.4mb 50f 51f
7:24 6 7 mph 1022.5mb 50f 52f
7:18 6 7 mph 1022.5mb 50f 51f
7:12 5 6 mph 1022.5mb 50f 51f
7:06 5 7 mph 1022.4mb 50f 51f
7:00 6 7 mph 1022.4mb 50f 50f
6:54 6
mph
1022.5mb 50f 50f
6:48 2 6 mph 1022.5mb 51f 50f
6:42 6 7 mph 1022.4mb - -
6:36 6 8 mph 1022.4mb 51f 49f
6:30 6 8 mph 1022.3mb 51f 49f
6:24 5 6 mph 1022.2mb 51f 49f
6:18 2 6 mph 1022.1mb 51f 49f
6:12 5 6 mph 1022mb 51f 48f
6:06 6 7 mph 1021.9mb 51f 48f
6:00 5 6 mph 1021.8mb 51f 48f
5:54 6 7 mph 1021.8mb 51f 48f
5:48 7 9 mph 1021.8mb 52f -
5:42 6 8 mph 1021.8mb 52f 48f
5:36 6 7 mph 1021.7mb 52f 48f
5:30 6 7 mph 1021.7mb 52f 48f
5:24 5 6 mph 1021.6mb 52f 48f
5:18 6 7 mph - - -
5:12 5
mph
1021.5mb 52f 48f
5:06 5 6 mph 1021.5mb 52f 48f
5:00 5 6 mph 1021.4mb 52f 48f
4:54 5 6 mph 1021.4mb 52f 48f
4:48 6
mph
1021.4mb 52f 48f
4:42 6 7 mph 1021.4mb 52f 48f
4:36 6 7 mph 1021.4mb 52f 48f
4:30 6 7 mph 1021.4mb 52f 48f
4:24 6 8 mph 1021.3mb 52f 48f
4:18 6 7 mph 1021.3mb 52f 48f
4:12 5 7 mph 1021.3mb 52f 48f
4:06 5 8 mph 1021.3mb 52f 48f
4:00 6 7 mph 1021.3mb 52f 48f
3:54 5 6 mph 1021.3mb 52f 48f
3:48 5 8 mph 1021.3mb 52f 48f
3:42 6 7 mph 1021.3mb 53f 48f
3:36 6
mph
1021.3mb 53f 48f
3:30 6 7 mph 1021.4mb 53f 48f
3:24 5 6 mph 1021.3mb 53f 48f
3:18 5 6 mph - - -
3:12 3 5 mph 1021.3mb 53f 49f
3:06 5 6 mph 1021.2mb 53f 49f
3:00 5 6 mph 1021.2mb 53f 49f
2:54 3 6 mph 1021.3mb 53f 49f
2:42 5 6 mph 1021.3mb 52f 49f
2:30 3 5 mph 1021.3mb 52f 49f
2:18 6 7 mph 1021.3mb 52f 49f
2:06 6 7 mph 1021.3mb 52f 49f
1:48 6
mph
1021.3mb 53f 49f
1:42 3 7 mph 1021.3mb 53f 49f
1:36 5 7 mph 1021.2mb 53f 49f
1:24 6 8 mph 1021.1mb 53f 49f
1:18 6 8 mph 1021mb 53f 49f
1:12 3 7 mph 1021.1mb 53f 49f
1:06 5 7 mph 1021.1mb 53f 49f
12:54 6 8 mph 1021.1mb 53f 49f
12:48 5 6 mph 1021.1mb 53f 49f
12:42 6 8 mph 1021mb 52f 49f
12:36 6 8 mph 1021mb 52f 49f
12:30 6 7 mph - - -
12:24 5 7 mph 1020.9mb 52f 50f
12:18 6 8 mph 1020.9mb 52f 50f
12:12 5 8 mph 1021mb 52f 50f
12:06 7 8 mph 1020.8mb 52f 50f
Dom 05/03 11:54 6 8 mph 1020.8mb 52f 50f
11:48 6 8 mph 1020.8mb 52f 50f
11:42 6 7 mph 1020.8mb 52f 50f
11:36 5 7 mph 1020.8mb 52f 51f
11:30 6 7 mph 1020.7mb 52f 51f
11:24 5 8 mph 1020.7mb 52f 51f
11:18 6 7 mph 1020.6mb 52f 51f
11:06 7 9 mph 1020.7mb 52f 51f
11:00 6 9 mph 1020.6mb 52f 51f
10:54 7 9 mph 1020.6mb 51f 51f
10:48 8 10 mph 1020.6mb 51f 51f
10:42 8 11 mph - - -
10:36 7 10 mph 1020.8mb 51f 51f
10:30 8 10 mph 1020.6mb 51f 51f
10:24 6 13 mph 1020.6mb 51f 51f
10:12 8 11 mph 1020.6mb 51f 51f
10:06 9 11 mph 1020.6mb 51f 52f
10:00 9 13 mph 1020.6mb 51f 52f
9:42 8 14 mph 1020.5mb 51f 52f
9:36 10 14 mph 1020.5mb 51f 52f
9:30 8 10 mph 1020.6mb 51f 52f
9:24 7 9 mph 1020.6mb 51f 52f
9:18 7 13 mph 1020.5mb 51f 52f
9:06 9 11 mph 1020.4mb 51f 51f
9:00 7 8 mph 1020.6mb 51f 51f
8:54 9 13 mph 1020.5mb 51f 51f
8:48 10 13 mph 1020.3mb 51f 51f
8:42 8 10 mph 1020.3mb 51f 51f
8:36 8 10 mph 1020.3mb 51f 51f
8:30 8 10 mph 1020.1mb 51f 52f
8:24 8 10 mph 1020mb 51f 52f
8:18 8 10 mph 1019.9mb 50f 52f
8:12 8 10 mph 1019.9mb 50f 52f
8:06 8 10 mph 1019.7mb 50f 52f
8:00 8 11 mph 1019.7mb 50f 52f
7:54 10 14 mph 1019.6mb 50f 52f
7:48 13 14 mph 1019.5mb 50f -
7:42 13 16 mph 1019.6mb 50f 52f
7:36 14 15 mph 1019.4mb 50f 52f
7:30 11 16 mph 1019.4mb 50f 52f
7:24 13 15 mph 1019.5mb 50f 52f
7:18 11 15 mph 1019.4mb 50f 52f
7:12 13 15 mph 1019.4mb 50f 53f
7:06 11 15 mph 1019.2mb 50f 53f
7:00 11 17 mph - - -
6:54 15 18 mph 1019.1mb 50f 52f
6:48 15 20 mph 1019mb 50f 52f
6:36 16 22 mph 1018.9mb 50f 52f
6:30 16 22 mph 1018.9mb 50f 52f
6:24 16 21 mph 1018.9mb 50f 52f
6:18 18 24 mph 1018.9mb 50f 52f
6:12 18 24 mph 1018.7mb 50f 52f
6:06 18 24 mph 1018.8mb 50f 53f
6:00 18 22 mph 1018.8mb 50f 52f
5:42 15 20 mph 1018.7mb 51f 52f
5:36 17 22 mph 1018.7mb 51f 52f
5:30 16 26 mph 1018.6mb 51f 52f
5:24 18 25 mph 1018.5mb 51f 52f
5:18 16 22 mph 1018.5mb 51f 52f
5:12 21 25 mph 1018.4mb 51f 52f
5:06 15 24 mph 1018.4mb 51f 52f
5:00 18 24 mph 1018.4mb 51f 52f
4:54 18 24 mph 1018.3mb 51f 51f
4:42 17 24 mph 1018.4mb 51f 52f
4:36 16 23 mph 1018.3mb 51f 52f
4:30 20 24 mph 1018.2mb 51f 52f
4:24 17 25 mph 1018.1mb 51f 53f
4:18 18 26 mph 1018.2mb 51f 53f
4:12 21 24 mph - - -
4:06 16 26 mph 1018.3mb 51f 53f
4:00 20 25 mph 1018.3mb 51f 53f
3:54 20 25 mph 1018.3mb 51f 53f
3:48 18 24 mph 1018.1mb 51f 53f
3:42 21 26 mph - - -
3:36 20 26 mph 1018.1mb 52f 53f
3:30 21 25 mph 1018.1mb 52f 53f
3:24 20 26 mph 1018.1mb 52f 54f
3:18 21 25 mph 1018.1mb 52f 54f
3:12 21 28 mph 1018.1mb 52f 54f
3:06 22 25 mph 1018mb 52f 54f
3:00 20 24 mph 1018mb 52f 54f
2:54 20 26 mph 1017.9mb 52f 55f
2:48 22 25 mph 1018mb 52f 55f
2:42 20 29 mph 1018mb 52f 55f
2:36 20 28 mph 1017.9mb 52f 55f
2:30 20 25 mph 1017.9mb 52f 56f
2:24 20 25 mph 1017.9mb 52f 55f
2:18 17 25 mph 1017.9mb 52f 56f
2:06 18 24 mph 1017.8mb 52f 56f
2:00 20 25 mph 1017.8mb 52f 56f
1:54 18 24 mph 1017.8mb 52f 57f
1:48 17 23 mph 1017.8mb 52f 57f
1:42 20 23 mph 1017.7mb 52f 57f
1:36 17 22 mph 1017.7mb 52f 58f
1:30 20 23 mph 1017.6mb 52f 57f
1:24 15 21 mph 1017.6mb 52f 58f
1:18 16 20 mph 1017.6mb 52f 58f
1:12 15 21 mph 1017.6mb 52f 58f
1:06 13 20 mph 1017.6mb 51f 58f
1:00 15 18 mph - - -
12:54 15 18 mph 1017.6mb 51f 58f
12:48 15 21 mph 1017.6mb 51f 58f
12:42 18 22 mph 1017.6mb 51f 58f
12:36 17 23 mph 1017.6mb 51f 58f
12:30 18 22 mph 1017.6mb 51f 57f
12:24 15 20 mph 1017.6mb 51f 58f
12:18 16 20 mph 1017.6mb 51f 57f
12:12 15 17 mph 1017.6mb 51f 58f
12:06 14 17 mph 1017.6mb 51f 58f
12:00 14 16 mph - - -
11:54 14 15 mph 1017.6mb 51f 59f
11:48 9 13 mph 1017.6mb 51f 58f
11:42 9 13 mph 1017.6mb 51f -
11:36 10 11 mph 1017.7mb 51f 58f
11:30 8 10 mph 1017.7mb 51f 58f
11:24 8 10 mph 1017.7mb 51f 57f
11:18 9 11 mph 1017.6mb 51f 57f
11:12 9 11 mph 1017.6mb 51f 57f
11:06 9 11 mph 1017.6mb 51f 57f
11:00 9 11 mph 1017.6mb 51f 56f
10:54 10 11 mph 1017.6mb 50f 56f
10:48 9 11 mph 1017.6mb 50f 56f
10:42 9 10 mph 1017.6mb 50f 56f
10:36 9 11 mph 1017.6mb 50f 55f
10:30 9 11 mph 1017.5mb 50f 55f
10:24 8 9 mph 1017.5mb 50f 56f
10:18 7 10 mph 1017.4mb 50f 55f
10:12 10 11 mph 1017.4mb 50f 54f
10:06 8 9 mph 1017.4mb 50f 54f
9:54 8 9 mph 1017.4mb 50f 54f
9:48 6 8 mph 1017.4mb 50f 56f
9:42 6 7 mph 1017.4mb 50f 55f
9:36 6 8 mph 1017.4mb 50f 56f
9:24 5 6 mph 1017.4mb 50f 56f
9:18 2 6 mph 1017.4mb 50f 55f
9:12 6 7 mph 1017.5mb 50f 54f
9:06 3 8 mph 1017.5mb 49f 54f
9:00 5 8 mph 1017.6mb 49f 55f
8:54 5 7 mph 1017.6mb 49f 55f
8:48 7 8 mph 1017.6mb 49f 54f
8:30 6 8 mph 1017.6mb 49f 53f
8:24 6 9 mph 1017.6mb 49f 53f
8:18 5 8 mph 1017.5mb 49f 53f
8:12 2 8 mph 1017.5mb 49f 53f
8:06 5 7 mph 1017.4mb 49f 53f
7:54 7 11 mph 1017.4mb 49f 52f
7:48 6 8 mph 1017.4mb 49f 52f
7:42 3 5 mph 1017.4mb 49f 51f
7:36 5 6 mph 1017.3mb 49f 50f
7:30 2 5 mph 1017.3mb 49f 50f
7:24 3 6 mph 1017.1mb 49f 50f
7:18 6
mph
1017.1mb 49f 49f
7:12 5 6 mph 1017mb 49f 49f
7:06 5 7 mph 1016.9mb 49f 49f
7:00 6 7 mph 1016.9mb 49f 49f
6:54 6 7 mph 1016.8mb 49f 49f
6:48 5 6 mph 1016.8mb 49f 48f
6:42 5 6 mph 1016.7mb 49f 48f
6:36 5 6 mph 1016.6mb 49f 48f
6:30 5 6 mph 1016.6mb 49f 48f
6:24 5 6 mph 1016.5mb 49f 47f
6:18 6
mph
1016.5mb 49f 47f
6:12 5 6 mph 1016.5mb 49f 47f
6:06 5 7 mph 1016.4mb 49f 47f
6:00 5 6 mph 1016.4mb 49f 48f
5:54 5 7 mph 1016.3mb 49f 47f
5:48 5 6 mph 1016.3mb - -
5:42 3 6 mph 1016.2mb 50f 47f
5:36 6
mph
1016.2mb 50f 47f
5:30 5 6 mph 1016.2mb 50f 47f
5:24 5 6 mph 1016.2mb 50f 47f
5:18 5 6 mph 1016.1mb 50f 46f
5:12 3 5 mph 1016.1mb 50f 46f
5:06 2 3 mph 1016.1mb 50f 46f
5:00 3 5 mph 1016.2mb 51f 46f
4:54 3 5 mph 1016.2mb 51f 46f
4:48 3 6 mph 1016.1mb 51f 46f
4:42 3 5 mph 1016mb 51f 46f
4:36 3 5 mph 1016mb 51f 46f
4:30 3 6 mph 1015.9mb - -
4:24 5
mph
1015.9mb 51f 46f
4:18 3 5 mph - - -
4:12 5 6 mph 1015.9mb 51f 46f
4:06 3 5 mph 1015.9mb 51f 46f
4:00 3 5 mph 1015.9mb 51f 46f
3:54 5 6 mph 1015.8mb 51f 46f
3:48 6 7 mph 1015.8mb - -
3:42 3 5 mph 1015.8mb 51f 45f
3:36 3 5 mph 1015.8mb 51f 45f
3:30 3 6 mph 1015.8mb 51f 45f
3:24 5 7 mph 1015.7mb 51f 45f
3:18 5 6 mph 1015.7mb 51f 45f
3:12 3 6 mph 1015.8mb 51f 45f
3:06 5 6 mph 1015.7mb 51f 46f
3:00 5
mph
1015.8mb 51f 46f
2:42 6 7 mph 1015.8mb 51f 46f
2:36  -  mph - - 46f
2:18 5 8 mph 1015.9mb 51f 46f
2:06 7 8 mph 1015.9mb 51f 46f
1:54 6 7 mph 1015.9mb 51f 46f
1:48 6 7 mph 1015.9mb 51f 46f
1:42 6 7 mph 1015.8mb 51f 46f
1:36 6 7 mph 1015.7mb 51f 46f
1:30 5 6 mph 1015.8mb 51f 47f
1:24 3 6 mph 1015.8mb 51f 47f
1:18 3 5 mph 1015.8mb 51f 47f
1:12 5
mph
1015.9mb 51f 47f
1:06 2 5 mph 1015.9mb 51f 47f
1:00 3 6 mph 1015.9mb 51f 47f
12:54 2 5 mph 1016mb 51f 47f
12:48 3 5 mph - - -
12:42 2 3 mph 1016.1mb 51f 47f
12:36 3 5 mph 1016mb 51f 47f
12:30 3 6 mph 1016mb 51f 47f
12:24 5 6 mph 1016mb 51f 47f
12:18 3 6 mph 1016mb 51f 47f
12:12 3 6 mph 1016mb 51f 47f
12:06 3 6 mph 1015.9mb 51f 47f
Sáb 05/02 11:48 5 6 mph 1015.9mb 51f 48f
11:42 5 6 mph - - -
11:36 3 5 mph 1016mb 51f 48f
11:30 5 7 mph 1016mb 51f 48f
11:24 3 8 mph 1016mb 51f 48f
11:18 6 7 mph 1015.9mb 51f 48f
11:12 5 6 mph - - -
11:06 5 6 mph 1015.9mb 51f 48f
11:00 5 6 mph 1015.9mb 50f 48f
10:54 5 7 mph 1015.9mb 50f 48f
10:48 3 5 mph 1015.8mb 50f 48f
10:42 5 6 mph 1015.9mb 50f 48f
10:36 6 7 mph 1015.9mb 50f 48f
10:30 6 7 mph 1015.8mb 50f 48f
10:24 5 6 mph 1015.9mb 50f 48f
10:18 6 7 mph 1015.8mb 50f 48f
10:12 6 7 mph 1015.9mb 50f 48f
10:06 5 8 mph 1015.9mb 50f 48f
10:00 7 9 mph 1015.8mb 50f 48f
9:42 5 7 mph 1015.7mb 50f 48f
9:36 6 8 mph 1015.6mb 50f 48f
9:30 6 7 mph 1015.5mb 50f 48f
9:24 7 10 mph 1015.5mb 50f 48f
9:18 7 8 mph 1015.5mb 50f 48f
9:12 8 10 mph 1015.5mb 49f 48f
9:06 8 10 mph 1015.5mb 49f 48f
9:00 8 13 mph 1015.5mb 49f 49f
8:54 10 14 mph 1015.5mb 49f 49f
8:48 10 13 mph 1015.5mb 49f 49f
8:42 9 13 mph 1015.4mb 49f 49f
8:36 9 13 mph 1015.3mb 49f 49f
8:30 10 14 mph 1015.3mb - -
8:24 11 15 mph 1015.2mb 49f 49f
8:18 10 13 mph 1015.2mb 49f 49f
8:12 11 13 mph 1015.1mb 49f 50f
8:06 11 13 mph 1015.1mb 49f 50f
8:00 8 13 mph 1015mb 49f 51f
7:54 10 13 mph 1014.9mb 49f 51f
7:48 8 13 mph 1014.8mb 49f 51f
7:42 10 15 mph 1014.8mb 49f 51f
7:36 9 14 mph 1014.7mb 49f 52f
7:30 11 14 mph 1014.6mb 49f 52f
7:24 10 15 mph 1014.5mb 49f 52f
7:18 8 13 mph 1014.5mb 49f 52f
7:12 11 14 mph 1014.4mb 49f 52f
7:06 9 13 mph 1014.3mb 49f 53f
7:00 10 13 mph 1014.2mb 49f 53f
6:54 11 14 mph 1014.2mb 49f 53f
6:48 10 14 mph 1014.1mb 49f 54f
6:42 10 14 mph 1014mb 49f 54f
6:36 9 13 mph 1013.9mb 49f 55f
6:30 10 14 mph 1013.9mb 49f -
6:24 10 15 mph 1013.8mb 49f 56f
6:18 11 16 mph 1013.7mb 49f 55f
6:12 9 14 mph 1013.7mb 49f 56f
6:06 9 15 mph 1013.7mb 49f 56f
6:00 11 16 mph 1013.6mb 49f 55f
5:54 10 15 mph 1013.5mb 48f 56f
5:48 8 13 mph 1013.6mb 49f 56f
5:42 10 14 mph 1013.5mb 48f 56f
5:36 11 15 mph 1013.5mb 48f 56f
5:30 11 17 mph 1013.4mb 49f 55f
5:24 13 17 mph 1013.4mb 48f 55f
5:18 14 15 mph 1013.4mb 48f 56f
5:12 11 14 mph 1013.3mb 48f 57f
5:06 11 14 mph 1013.3mb 49f 56f
5:00 11 15 mph 1013.3mb 49f 56f
4:54 11 16 mph 1013.2mb 49f 56f
4:48 14 20 mph 1013.2mb 49f 56f
4:30 14 17 mph 1013.1mb 49f 56f
4:24 14 20 mph 1013mb 49f 56f
4:18 16 21 mph 1013.1mb 49f 55f
4:12 16 21 mph - - -
4:06 14 17 mph 1013mb 49f 57f
4:00 14 18 mph 1013.1mb 49f 57f
3:54 17 20 mph 1013.1mb 49f 56f
3:48 15 18 mph 1013.2mb 49f 57f
3:42 16 17 mph 1013.1mb 49f 57f
3:36 15 18 mph 1013.1mb 49f 58f
3:30 15 18 mph 1013.2mb 49f 56f
3:24 16 18 mph 1013.2mb 49f 56f
3:18 14 17 mph 1013.3mb 50f 57f
3:12 14 17 mph 1013.4mb 50f 57f
3:06 13 17 mph 1013.4mb 50f 56f
3:00 14 16 mph 1013.4mb 50f 57f
2:54 13 17 mph 1013.5mb 50f 58f
2:48 13 17 mph 1013.5mb 50f 58f
2:42 14 17 mph 1013.5mb 50f 57f
2:36 14 17 mph 1013.5mb 50f 57f
2:30 13 16 mph 1013.6mb 50f 57f
2:24 11 16 mph 1013.6mb 50f 57f
2:18 13 16 mph 1013.6mb 50f 56f
2:12 15 17 mph 1013.7mb 50f 57f
2:06 16 18 mph 1013.8mb 50f 57f
2:00 14 15 mph 1013.7mb 50f 58f
1:54 10 14 mph 1013.7mb 50f 58f
1:48 9 10 mph 1013.7mb 50f 59f
1:42 3 7 mph 1013.8mb 50f 59f
1:36 5 7 mph 1013.8mb 50f 59f
1:30 6 7 mph 1013.9mb 50f 59f
1:24 5 9 mph 1014mb 50f 59f
1:18 5 7 mph 1014mb 49f 58f
1:12 7 9 mph 1014.1mb 49f 58f
1:06 6 8 mph 1014.1mb 49f 57f
1:00 5 6 mph 1014.1mb - -
12:42 5 9 mph 1014.3mb 49f 59f
12:36 3 8 mph 1014.4mb 49f 59f
12:30 6 9 mph 1014.4mb 49f 58f
12:24 6 8 mph 1014.4mb 49f 58f
12:18 5 10 mph 1014.5mb 49f 59f
12:12 6 8 mph - - -
12:06 7 9 mph 1014.6mb 49f 58f
12:00 3 7 mph 1014.7mb 49f 57f
11:54 7 9 mph 1014.8mb 49f 56f
11:48 3 6 mph 1014.8mb 49f 56f
11:42 2 5 mph 1014.8mb 49f 55f
11:36 6 9 mph 1014.9mb 49f 55f
11:30 7 10 mph 1014.9mb - -
11:24 5 6 mph 1014.9mb 49f 54f
11:18 1 3 mph 1015mb 49f 54f
11:12 2 3 mph 1015.1mb 49f 54f
11:06 5 7 mph 1015.1mb 49f 53f
10:54 2 5 mph 1015.1mb 48f 53f
10:48 5 7 mph 1015.1mb 48f 51f
10:42 6 8 mph 1015.1mb 48f 51f
10:36 3 6 mph 1015.1mb 48f 50f
10:30 3 6 mph 1015.1mb 48f 49f
10:18 6 7 mph 1015.1mb 48f 49f
10:12 3 5 mph 1015.2mb 48f 49f
10:06 3 5 mph 1015.2mb 48f 48f
10:00 2 5 mph 1015.2mb 48f 47f
9:54 2 5 mph 1015.2mb 48f 47f
9:48 2 5 mph 1015.2mb 48f 47f
9:36 3 6 mph 1015.3mb 48f 47f
9:30 3 7 mph 1015.2mb 47f 46f
9:24 3 6 mph 1015.3mb 47f 45f
9:18 6 7 mph 1015.4mb 47f 45f
9:12 5 6 mph 1015.5mb 47f 45f
9:06 5 6 mph 1015.5mb 47f 44f
9:00 6 7 mph 1015.5mb 47f 44f
8:54 3 6 mph 1015.6mb 47f 43f
8:48 3 6 mph 1015.6mb 47f 43f
8:36 3 5 mph 1015.7mb 47f 43f
8:30 3 6 mph 1015.7mb 47f 43f
8:24 2 5 mph 1015.8mb 47f 42f
8:18 2 3 mph 1015.8mb 47f 41f
8:12 3 6 mph 1015.8mb - -
8:06 5 6 mph 1015.7mb 47f 41f
8:00 2 6 mph 1015.7mb 47f 42f
7:54 2 5 mph 1015.7mb 47f 41f
7:48  -  2 mph - - -
7:42  -  2 mph 1015.8mb 47f 39f
7:36 1 3 mph 1015.8mb 47f 39f
7:30 3 5 mph 1015.7mb 47f 39f
7:24 3 6 mph 1015.7mb 47f 38f
7:18 2 3 mph - - -
7:12 1 5 mph 1015.7mb 47f 38f
7:06 2 3 mph 1015.6mb 47f 38f
7:00 3 6 mph 1015.6mb 47f 38f
6:54 2 5 mph 1015.6mb 47f 38f
6:48 1 5 mph 1015.6mb 47f 38f
6:42 5 6 mph 1015.5mb 47f 38f
6:36 5 6 mph 1015.5mb 47f 38f
6:30 2 3 mph 1015.5mb 47f 38f
6:24 1 3 mph 1015.4mb 47f 38f
6:18 1 3 mph 1015.4mb 47f 38f
6:12 2 3 mph 1015.4mb 47f 38f
6:06 3 5 mph 1015.3mb 47f 38f
6:00 2 5 mph 1015.3mb 47f 37f
5:54 3 5 mph 1015.3mb 47f 37f
5:48 2 5 mph 1015.1mb 47f 38f
5:42 3 6 mph 1015.1mb 47f 38f
5:36  -  3 mph 1015.1mb 47f 37f
5:30 3 6 mph 1015.1mb 47f 37f
5:24 3 5 mph 1015mb 48f 37f
5:18 3 5 mph 1014.9mb 48f 37f
5:12 5 7 mph 1014.9mb 48f 37f
5:06 2 6 mph 1014.8mb 48f 37f
5:00 5 6 mph 1014.9mb 48f 37f
4:54 3 6 mph 1014.8mb 48f 37f
4:48 5 6 mph 1014.8mb 48f 37f
4:42 5 6 mph 1014.8mb 48f 37f
4:36 2 5 mph 1014.8mb 48f 37f
4:30 2 6 mph 1014.7mb 48f 37f
4:24 5 7 mph 1014.7mb 48f 37f
4:18 3 6 mph 1014.7mb 49f 37f
4:12 3 7 mph 1014.7mb 49f 37f
4:06 6 8 mph 1014.7mb 49f 37f
4:00 3 6 mph 1014.7mb 49f 37f
3:54 5 7 mph 1014.7mb 49f 37f
3:48 6 7 mph 1014.7mb 49f 37f
3:42 3 6 mph 1014.7mb 49f 37f
3:36 5 6 mph 1014.6mb 49f 38f
3:24 3 5 mph 1014.5mb 49f 38f
3:18 3 7 mph 1014.3mb 49f 38f
3:12 6 8 mph 1014.4mb 49f 38f
3:06 6 7 mph 1014.4mb 49f 38f
3:00 6 8 mph 1014.4mb 49f 38f
2:54 7
mph
1014.3mb 49f 39f
2:48 5 7 mph 1014.4mb 50f 39f
2:30 3 5 mph 1014.6mb 50f 40f
2:18 2 5 mph 1014.6mb 50f 40f
2:06 3 5 mph 1014.6mb 50f 40f
1:54 2 5 mph 1014.7mb 50f 40f
1:48 3 5 mph 1014.7mb 50f 40f
1:42 3 5 mph 1014.8mb 50f 40f
1:36 3 5 mph 1014.8mb 50f 40f
1:30 3 5 mph 1014.9mb 50f 41f
1:24 2 5 mph 1014.9mb 50f 41f
1:18 5 6 mph 1014.9mb 50f 41f
1:06 3 6 mph 1014.8mb 50f 41f
1:00 3 5 mph 1014.9mb 50f 41f
12:54 2 5 mph 1015mb 50f 41f
12:48 3 5 mph 1015.1mb 50f 41f
12:42 5 6 mph 1015.1mb 50f 42f
12:36 2 5 mph 1015mb 50f 42f
12:24 3 5 mph 1015mb 50f 42f
12:18 2 5 mph 1015mb 50f 42f
12:12 3 6 mph 1015mb 50f 42f
12:06 6 7 mph 1014.9mb 50f 42f
12:00 5 6 mph 1014.9mb 50f 43f
Sex 05/01 11:54 3 5 mph 1014.9mb 50f 43f
11:48 2 6 mph 1015mb 50f 43f
11:42 3 6 mph 1015mb 50f 43f
11:36 5 6 mph 1015mb 50f 43f
11:30 5
mph
1015mb 50f 43f
11:24 3 6 mph 1015mb 50f 44f
11:18 3 5 mph - - -
11:12 3 6 mph 1015mb 49f 44f
11:06 5 6 mph 1015mb 49f 44f
11:00 1 3 mph 1015mb 49f 44f
10:54 2
mph
1015.2mb 49f 44f
10:48  -  5 mph 1015.1mb 49f 45f
10:42 3 7 mph 1015.1mb 49f 45f
10:36 6 8 mph 1015.1mb 48f 45f
10:30 6 7 mph 1015.2mb 48f 46f
10:24 5 7 mph 1015.1mb 48f 46f
10:18 6 8 mph 1015.2mb 48f 46f
10:12 6 7 mph 1015.2mb 48f 46f
10:06 5 7 mph 1015.2mb 48f 46f
10:00 5 6 mph 1015.2mb 48f 47f
9:54 3 5 mph 1015.1mb 47f 47f
9:48 5 7 mph 1015.1mb 47f 47f
9:42 5 6 mph 1015.1mb 47f 47f
9:36 3 5 mph 1015.1mb 47f 48f
9:30 5 6 mph 1015.1mb 47f 48f
9:24 5 7 mph 1015.1mb 47f 48f
9:18 6 7 mph 1015mb 47f 48f
9:12 6 7 mph 1015mb 47f 49f
9:06 5 6 mph 1015mb 47f 49f
9:00 3 6 mph 1015mb 47f 49f
8:54 6 7 mph 1014.8mb 47f 49f
8:48 6 8 mph 1014.7mb 47f 49f
8:42 7 8 mph 1014.6mb 47f 49f
8:36 6 7 mph 1014.6mb 47f 50f
8:30 6 8 mph 1014.6mb 47f 50f
8:24 7 8 mph 1014.6mb 47f 50f
8:18 6 9 mph 1014.6mb 47f 50f
8:12 6 8 mph 1014.6mb 47f 51f
8:06 8 9 mph 1014.6mb 47f 51f
8:00 8 9 mph 1014.5mb 47f 51f
7:54 8 9 mph 1014.4mb 47f 51f
7:48 8 10 mph 1014.3mb 47f 51f
7:42 7 9 mph 1014.3mb 47f 52f
7:36 7 9 mph 1014.2mb 47f 52f
7:30 7 9 mph 1014.2mb 47f 52f
7:24 8 11 mph 1014.1mb 47f 52f
7:18 8 10 mph 1014.1mb 47f 52f
7:12 6 10 mph 1014mb 47f 53f
7:06 7 10 mph 1013.9mb 47f 53f
7:00 9 13 mph 1013.8mb 47f 53f
6:54 11 15 mph 1013.7mb 47f 53f
6:48 11 14 mph - - -
6:42 9 13 mph 1013.5mb 47f 54f